createdAt,value
2023-04-22T00:02:23.639Z,100700.91
2023-04-22T00:04:53.483Z,100701.50
2023-04-22T00:07:52.639Z,100695.97
2023-04-22T00:10:20.980Z,100696.97
2023-04-22T00:13:05.434Z,100693.53
2023-04-22T00:15:34.184Z,100695.47
2023-04-22T00:18:05.001Z,100693.91
2023-04-22T00:20:34.892Z,100692.31
2023-04-22T00:23:07.704Z,100694.25
2023-04-22T00:25:37.684Z,100676.84
2023-04-22T00:28:07.508Z,100681.72
2023-04-22T00:30:40.361Z,100670.81
2023-04-22T00:33:08.752Z,100670.97
2023-04-22T00:35:37.287Z,100682.16
2023-04-22T00:38:09.518Z,100677.09
2023-04-22T00:40:37.983Z,100670.81
2023-04-22T00:43:09.902Z,100683.50
2023-04-22T00:45:38.996Z,100677.19
2023-04-22T00:48:07.465Z,100669.75
2023-04-22T00:50:38.135Z,100677.25
2023-04-22T00:53:06.449Z,100672.47
2023-04-22T00:55:36.893Z,100675.84
2023-04-22T00:58:05.763Z,100669.84
2023-04-22T01:00:34.270Z,100673.22
2023-04-22T01:03:04.052Z,100671.28
2023-04-22T01:05:33.364Z,100675.00
2023-04-22T01:08:03.470Z,100670.53
2023-04-22T01:10:31.942Z,100669.75
2023-04-22T01:13:01.571Z,100674.25
2023-04-22T01:15:36.260Z,100665.81
2023-04-22T01:18:05.522Z,100662.06
2023-04-22T01:20:34.216Z,100662.09
2023-04-22T01:23:04.619Z,100663.31
2023-04-22T01:25:37.693Z,100662.84
2023-04-22T01:28:06.183Z,100665.16
2023-04-22T01:30:37.381Z,100663.16
2023-04-22T01:33:06.321Z,100655.88
2023-04-22T01:35:37.256Z,100654.72
2023-04-22T01:38:08.891Z,100656.91
2023-04-22T01:40:40.390Z,100654.75
2023-04-22T01:43:08.678Z,100646.97
2023-04-22T01:45:56.994Z,100651.59
2023-04-22T01:48:26.604Z,100644.28
2023-04-22T01:50:59.679Z,100648.47
2023-04-22T01:53:28.286Z,100644.78
2023-04-22T01:56:03.851Z,100643.47
2023-04-22T01:58:35.862Z,100640.50
2023-04-22T02:01:04.193Z,100640.16
2023-04-22T02:03:34.825Z,100643.28
2023-04-22T02:06:05.808Z,100637.47
2023-04-22T02:08:35.478Z,100634.00
2023-04-22T02:11:07.732Z,100635.13
2023-04-22T02:13:39.344Z,100638.28
2023-04-22T02:16:08.802Z,100631.78
2023-04-22T02:18:37.235Z,100633.13
2023-04-22T02:21:05.822Z,100637.09
2023-04-22T02:23:42.563Z,100636.41
2023-04-22T02:26:12.218Z,100625.13
2023-04-22T02:28:44.903Z,100626.63
2023-04-22T02:31:14.396Z,100634.09
2023-04-22T02:33:56.389Z,100631.94
2023-04-22T02:36:28.892Z,100634.59
2023-04-22T02:38:57.742Z,100634.44
2023-04-22T02:41:27.565Z,100631.94
2023-04-22T02:43:55.897Z,100638.25
2023-04-22T02:46:24.204Z,100622.63
2023-04-22T02:48:52.516Z,100622.13
2023-04-22T02:51:21.704Z,100620.81
2023-04-22T02:53:50.408Z,100616.66
2023-04-22T02:56:21.137Z,100613.66
2023-04-22T02:58:52.122Z,100607.66
2023-04-22T03:01:20.397Z,100612.34
2023-04-22T03:03:49.292Z,100605.69
2023-04-22T03:06:18.572Z,100608.50
2023-04-22T03:08:53.081Z,100603.00
2023-04-22T03:11:23.625Z,100610.63
2023-04-22T03:14:00.630Z,100604.16
2023-04-22T03:16:29.067Z,100602.50
2023-04-22T03:18:57.344Z,100598.72
2023-04-22T03:21:25.628Z,100601.66
2023-04-22T03:23:57.304Z,100594.72
2023-04-22T03:26:25.739Z,100592.53
2023-04-22T03:29:10.334Z,100586.41
2023-04-22T03:31:40.266Z,100594.66
2023-04-22T03:34:08.981Z,100594.03
2023-04-22T03:36:37.462Z,100587.53
2023-04-22T03:39:11.838Z,100588.50
2023-04-22T03:41:40.081Z,100588.34
2023-04-22T03:44:27.221Z,100577.06
2023-04-22T03:46:55.573Z,100572.28
2023-04-22T03:49:26.736Z,100579.94
2023-04-22T03:51:55.025Z,100581.09
2023-04-22T03:54:27.463Z,100580.78
2023-04-22T03:56:55.764Z,100575.63
2023-04-22T03:59:49.093Z,100583.63
2023-04-22T04:02:19.202Z,100587.63
2023-04-22T04:04:47.768Z,100578.50
2023-04-22T04:07:18.077Z,100580.50
2023-04-22T04:09:46.813Z,100579.19
2023-04-22T04:12:15.088Z,100581.84
2023-04-22T04:14:45.850Z,100574.06
2023-04-22T04:17:15.778Z,100572.75
2023-04-22T04:19:45.514Z,100570.09
2023-04-22T04:22:13.727Z,100564.97
2023-04-22T04:24:42.479Z,100573.75
2023-04-22T04:27:12.053Z,100565.97
2023-04-22T04:29:46.146Z,100562.63
2023-04-22T04:32:18.397Z,100564.28
2023-04-22T04:34:46.894Z,100550.22
2023-04-22T04:37:16.901Z,100560.47
2023-04-22T04:39:46.364Z,100562.94
2023-04-22T04:42:14.636Z,100560.94
2023-04-22T04:44:43.008Z,100559.75
2023-04-22T04:47:13.231Z,100557.72
2023-04-22T04:49:43.901Z,100565.16
2023-04-22T04:52:12.159Z,100557.63
2023-04-22T04:54:40.492Z,100557.06
2023-04-22T04:57:10.276Z,100546.19
2023-04-22T04:59:43.332Z,100549.31
2023-04-22T05:02:13.978Z,100550.75
2023-04-22T05:04:54.180Z,100549.81
2023-04-22T05:07:22.652Z,100546.19
2023-04-22T05:09:51.035Z,100536.16
2023-04-22T05:12:23.129Z,100543.13
2023-04-22T05:14:51.341Z,100544.41
2023-04-22T05:17:19.751Z,100536.78
2023-04-22T05:19:49.993Z,100530.84
2023-04-22T05:22:18.825Z,100534.69
2023-04-22T05:24:47.010Z,100531.41
2023-04-22T05:27:18.943Z,100531.59
2023-04-22T05:29:47.627Z,100531.59
2023-04-22T05:32:47.715Z,100526.06
2023-04-22T05:35:29.153Z,100520.22
2023-04-22T05:37:57.913Z,100518.72
2023-04-22T05:40:29.192Z,100521.72
2023-04-22T05:42:58.793Z,100520.84
2023-04-22T05:45:31.017Z,100518.47
2023-04-22T05:47:59.355Z,100517.97
2023-04-22T05:50:29.751Z,100514.13
2023-04-22T05:52:57.993Z,100519.38
2023-04-22T05:55:26.434Z,100511.66
2023-04-22T05:57:56.964Z,100509.91
2023-04-22T06:00:26.776Z,100514.31
2023-04-22T06:02:55.369Z,100507.97
2023-04-22T06:05:24.079Z,100496.34
2023-04-22T06:07:54.055Z,100507.31
2023-04-22T06:10:31.575Z,100497.50
2023-04-22T06:12:59.924Z,100499.03
2023-04-22T06:15:28.531Z,100497.66
2023-04-22T06:17:56.777Z,100492.34
2023-04-22T06:20:36.971Z,100481.44
2023-04-22T06:23:06.768Z,100478.38
2023-04-22T06:25:35.192Z,100486.63
2023-04-22T06:28:07.932Z,100482.28
2023-04-22T06:30:37.425Z,100485.19
2023-04-22T06:33:06.110Z,100480.44
2023-04-22T06:35:36.306Z,100475.44
2023-04-22T06:38:06.818Z,100473.50
2023-04-22T06:40:35.319Z,100475.34
2023-04-22T06:43:03.638Z,100477.31
2023-04-22T06:45:31.952Z,100478.09
2023-04-22T06:48:00.327Z,100474.28
2023-04-22T06:50:28.887Z,100463.47
2023-04-22T06:53:01.421Z,100465.47
2023-04-22T06:55:31.416Z,100458.38
2023-04-22T06:58:01.416Z,100450.97
2023-04-22T07:00:29.949Z,100451.69
2023-04-22T07:02:59.392Z,100445.16
2023-04-22T07:05:28.132Z,100457.34
2023-04-22T07:08:02.837Z,100454.88
2023-04-22T07:10:32.813Z,100452.41
2023-04-22T07:13:01.546Z,100451.00
2023-04-22T07:15:29.984Z,100439.00
2023-04-22T07:17:58.605Z,100444.09
2023-04-22T07:20:54.251Z,100442.28
2023-04-22T07:23:24.307Z,100438.94
2023-04-22T07:25:54.210Z,100433.34
2023-04-22T07:28:24.047Z,100436.06
2023-04-22T07:30:53.736Z,100421.53
2023-04-22T07:33:28.253Z,100429.41
2023-04-22T07:35:56.772Z,100426.97
2023-04-22T07:38:39.288Z,100427.19
2023-04-22T07:41:08.874Z,100426.63
2023-04-22T07:43:55.629Z,100427.78
2023-04-22T07:46:24.050Z,100432.13
2023-04-22T07:48:52.507Z,100425.88
2023-04-22T07:51:26.864Z,100415.66
2023-04-22T07:53:57.943Z,100418.66
2023-04-22T07:56:32.080Z,100410.50
2023-04-22T07:59:00.617Z,100405.56
2023-04-22T08:01:40.260Z,100404.38
2023-04-22T08:04:13.349Z,100409.16
2023-04-22T08:06:58.528Z,100410.88
2023-04-22T08:09:28.182Z,100409.91
2023-04-22T08:12:00.412Z,100401.06
2023-04-22T08:14:28.731Z,100396.47
2023-04-22T08:17:00.031Z,100398.69
2023-04-22T08:19:32.158Z,100394.75
2023-04-22T08:22:06.644Z,100393.06
2023-04-22T08:24:39.686Z,100383.63
2023-04-22T08:27:09.646Z,100380.69
2023-04-22T08:29:50.931Z,100387.16
2023-04-22T08:32:20.986Z,100371.59
2023-04-22T08:34:51.804Z,100379.63
2023-04-22T08:37:23.534Z,100379.31
2023-04-22T08:39:54.947Z,100382.13
2023-04-22T08:42:31.152Z,100380.88
2023-04-22T08:45:01.562Z,100373.50
2023-04-22T08:47:30.986Z,100363.03
2023-04-22T08:50:03.343Z,100371.41
2023-04-22T08:55:14.323Z,100365.00
2023-04-22T08:57:47.584Z,100364.59
2023-04-22T09:00:21.088Z,100359.34
2023-04-22T09:03:01.250Z,100367.38
2023-04-22T09:05:32.674Z,100364.66
2023-04-22T09:08:01.383Z,100360.25
2023-04-22T09:10:32.419Z,100372.53
2023-04-22T09:13:05.812Z,100351.63
2023-04-22T09:15:34.150Z,100363.56
2023-04-22T09:18:04.376Z,100354.38
2023-04-22T09:20:33.249Z,100352.47
2023-04-22T09:23:07.417Z,100352.72
2023-04-22T09:25:43.371Z,100349.50
2023-04-22T09:28:20.440Z,100342.66
2023-04-22T09:30:51.725Z,100340.56
2023-04-22T09:33:21.587Z,100342.75
2023-04-22T09:35:50.409Z,100329.78
2023-04-22T09:38:22.007Z,100339.09
2023-04-22T09:40:56.459Z,100330.72
2023-04-22T09:43:30.901Z,100333.00
2023-04-22T09:46:01.443Z,100320.06
2023-04-22T09:48:29.839Z,100329.88
2023-04-22T09:50:58.156Z,100321.50
2023-04-22T09:53:26.466Z,100328.56
2023-04-22T09:55:57.778Z,100326.50
2023-04-22T09:58:30.468Z,100325.69
2023-04-22T10:01:00.352Z,100322.19
2023-04-22T10:03:28.689Z,100318.66
2023-04-22T10:05:57.214Z,100313.81
2023-04-22T10:08:27.504Z,100312.25
2023-04-22T10:10:55.964Z,100301.41
2023-04-22T10:13:30.546Z,100303.81
2023-04-22T10:16:02.843Z,100301.94
2023-04-22T10:18:33.244Z,100292.72
2023-04-22T10:21:02.135Z,100301.13
2023-04-22T10:23:34.889Z,100301.16
2023-04-22T10:26:09.027Z,100295.19
2023-04-22T10:28:41.792Z,100283.56
2023-04-22T10:31:23.836Z,100285.75
2023-04-22T10:34:13.324Z,100278.94
2023-04-22T10:37:03.407Z,100287.09
2023-04-22T10:39:32.569Z,100288.47
2023-04-22T10:42:11.428Z,100280.63
2023-04-22T10:44:53.851Z,100287.72
2023-04-22T10:47:35.919Z,100278.50
2023-04-22T10:50:26.130Z,100273.56
2023-04-22T10:52:57.677Z,100272.16
2023-04-22T10:55:28.062Z,100270.00
2023-04-22T10:58:00.846Z,100268.38
2023-04-22T11:00:53.295Z,100262.94
2023-04-22T11:03:29.963Z,100268.88
2023-04-22T11:07:09.377Z,100259.94
2023-04-22T11:09:13.212Z,100248.53
2023-04-22T11:11:44.343Z,100245.28
2023-04-22T11:14:13.037Z,100243.16
2023-04-22T11:16:48.901Z,100252.38
2023-04-22T11:19:19.334Z,100238.00
2023-04-22T11:21:49.536Z,100242.88
2023-04-22T11:24:21.820Z,100238.00
2023-04-22T11:26:58.142Z,100253.50
2023-04-22T11:29:26.694Z,100232.84
2023-04-22T11:31:56.427Z,100231.19
2023-04-22T11:34:31.471Z,100225.75
2023-04-22T11:37:04.792Z,100221.13
2023-04-22T11:39:47.607Z,100216.25
2023-04-22T11:42:24.565Z,100201.00
2023-04-22T11:44:55.445Z,100214.06
2023-04-22T11:47:26.742Z,100208.63
2023-04-22T11:50:16.609Z,100208.91
2023-04-22T11:52:49.057Z,100210.53
2023-04-22T11:55:19.032Z,100197.47
2023-04-22T11:57:55.327Z,100188.50
2023-04-22T12:00:25.762Z,100184.97
2023-04-22T12:02:59.167Z,100189.03
2023-04-22T12:05:41.824Z,100189.59
2023-04-22T12:08:11.916Z,100184.69
2023-04-22T12:10:45.935Z,100195.03
2023-04-22T12:13:22.534Z,100190.38
2023-04-22T12:16:16.973Z,100190.91
2023-04-22T12:18:54.786Z,100188.16
2023-04-22T12:21:33.018Z,100187.06
2023-04-22T12:24:11.969Z,100175.34
2023-04-22T12:26:43.926Z,100176.72
2023-04-22T12:29:15.664Z,100165.84
2023-04-22T12:31:44.174Z,100166.09
2023-04-22T12:34:12.562Z,100164.75
2023-04-22T12:36:42.770Z,100164.16
2023-04-22T12:39:15.422Z,100167.19
2023-04-22T12:41:52.297Z,100162.56
2023-04-22T12:44:24.920Z,100162.81
2023-04-22T12:46:57.698Z,100172.91
2023-04-22T12:49:30.102Z,100154.94
2023-04-22T12:52:16.394Z,100164.19
2023-04-22T12:54:46.657Z,100159.03
2023-04-22T12:57:16.339Z,100140.78
2023-04-22T12:59:50.463Z,100157.09
2023-04-22T13:02:19.172Z,100149.44
2023-04-22T13:04:50.607Z,100144.47
2023-04-22T13:07:20.953Z,100146.91
2023-04-22T13:09:49.479Z,100134.94
2023-04-22T13:12:17.970Z,100128.06
2023-04-22T13:14:46.586Z,100131.59
2023-04-22T13:17:16.841Z,100123.13
2023-04-22T13:19:48.769Z,100121.50
2023-04-22T13:22:17.056Z,100110.00
2023-04-22T13:24:47.279Z,100115.69
2023-04-22T13:27:17.207Z,100117.09
2023-04-22T13:29:54.909Z,100112.16
2023-04-22T13:32:24.902Z,100100.19
2023-04-22T13:35:23.503Z,100106.44
2023-04-22T13:38:06.030Z,100096.63
2023-04-22T13:40:36.119Z,100090.38
2023-04-22T13:43:08.119Z,100078.69
2023-04-22T13:45:40.914Z,100098.03
2023-04-22T13:48:17.299Z,100088.50
2023-04-22T13:51:18.712Z,100071.31
2023-04-22T13:53:47.203Z,100081.13
2023-04-22T13:56:23.152Z,100080.31
2023-04-22T13:58:51.668Z,100076.75
2023-04-22T14:01:20.164Z,100065.03
2023-04-22T14:03:49.453Z,100062.50
2023-04-22T14:06:17.961Z,100066.31
2023-04-22T14:08:46.795Z,100059.03
2023-04-22T14:11:15.419Z,100061.50
2023-04-22T14:13:45.289Z,100057.16
2023-04-22T14:16:15.054Z,100049.63
2023-04-22T14:18:45.798Z,100052.34
2023-04-22T14:21:17.806Z,100038.25
2023-04-22T14:23:51.653Z,100035.28
2023-04-22T14:26:20.447Z,100027.41
2023-04-22T14:28:50.158Z,100036.63
2023-04-22T14:31:21.927Z,100031.13
2023-04-22T14:34:03.376Z,100034.94
2023-04-22T14:36:32.192Z,100028.13
2023-04-22T14:39:16.596Z,100028.38
2023-04-22T14:41:45.551Z,100011.47
2023-04-22T14:44:15.728Z,100022.25
2023-04-22T14:46:45.343Z,100012.38
2023-04-22T14:49:14.163Z,100019.97
2023-04-22T14:51:42.473Z,100014.06
2023-04-22T14:54:12.341Z,100010.56
2023-04-22T14:56:40.677Z,100003.78
2023-04-22T14:59:09.056Z,99999.38
2023-04-22T15:01:41.917Z,100005.38
2023-04-22T15:04:15.119Z,100001.81
2023-04-22T15:06:43.528Z,99997.78
2023-04-22T15:09:32.808Z,100005.13
2023-04-22T15:12:04.948Z,100003.66
2023-04-22T15:14:34.052Z,99994.13
2023-04-22T15:17:13.009Z,100001.19
2023-04-22T15:19:44.233Z,99993.59
2023-04-22T15:22:12.680Z,99995.28
2023-04-22T15:24:41.448Z,99992.03
2023-04-22T15:27:12.397Z,99980.59
2023-04-22T15:29:45.137Z,99990.47
2023-04-22T15:32:37.894Z,99982.78
2023-04-22T15:35:04.240Z,99970.06
2023-04-22T15:37:41.288Z,99974.69
2023-04-22T15:40:11.460Z,99975.63
2023-04-22T15:42:43.925Z,99970.50
2023-04-22T15:45:12.891Z,99974.38
2023-04-22T15:48:00.444Z,99970.88
2023-04-22T15:50:28.839Z,99973.84
2023-04-22T15:52:59.451Z,99969.69
2023-04-22T15:55:27.872Z,99970.41
2023-04-22T15:57:58.495Z,99961.41
2023-04-22T16:00:31.010Z,99957.81
2023-04-22T16:03:01.137Z,99955.16
2023-04-22T16:05:31.026Z,99950.66
2023-04-22T16:07:59.395Z,99956.31
2023-04-22T16:10:28.285Z,99947.22
2023-04-22T16:13:02.162Z,99942.66
2023-04-22T16:15:34.675Z,99934.13
2023-04-22T16:18:05.539Z,99940.66
2023-04-22T16:20:33.938Z,99936.91
2023-04-22T16:23:02.433Z,99922.16
2023-04-22T16:25:30.942Z,99933.66
2023-04-22T16:27:59.789Z,99920.28
2023-04-22T16:30:29.314Z,99924.06
2023-04-22T16:33:01.006Z,99924.97
2023-04-22T16:35:31.232Z,99918.81
2023-04-22T16:38:03.309Z,99915.28
2023-04-22T16:40:35.414Z,99900.88
2023-04-22T16:43:05.448Z,99902.50
2023-04-22T16:45:33.692Z,99904.06
2023-04-22T16:48:02.086Z,99902.78
2023-04-22T16:50:34.310Z,99893.72
2023-04-22T16:53:02.588Z,99896.28
2023-04-22T16:55:30.747Z,99897.28
2023-04-22T16:58:01.142Z,99901.88
2023-04-22T17:00:29.831Z,99890.38
2023-04-22T17:03:04.439Z,99889.53
2023-04-22T17:05:39.279Z,99890.41
2023-04-22T17:08:09.463Z,99891.91
2023-04-22T17:10:41.793Z,99883.47
2023-04-22T17:13:11.417Z,99884.47
2023-04-22T17:15:42.552Z,99887.22
2023-04-22T17:18:14.296Z,99874.97
2023-04-22T17:20:56.816Z,99880.75
2023-04-22T17:23:27.914Z,99869.56
2023-04-22T17:25:56.281Z,99865.53
2023-04-22T17:28:24.726Z,99869.31
2023-04-22T17:30:53.260Z,99878.84
2023-04-22T17:33:21.573Z,99869.19
2023-04-22T17:35:51.698Z,99871.09
2023-04-22T17:38:21.446Z,99867.47
2023-04-22T17:40:49.657Z,99863.97
2023-04-22T17:43:27.515Z,99872.78
2023-04-22T17:45:57.328Z,99871.72
2023-04-22T17:48:37.146Z,99867.97
2023-04-22T17:51:25.741Z,99857.78
2023-04-22T17:53:56.935Z,99864.03
2023-04-22T17:56:27.612Z,99862.78
2023-04-22T17:58:55.894Z,99859.66
2023-04-22T18:01:24.355Z,99858.31
2023-04-22T18:03:53.468Z,99855.41
2023-04-22T18:06:29.219Z,99858.19
2023-04-22T18:09:00.940Z,99852.59
2023-04-22T18:11:29.168Z,99857.19
2023-04-22T18:14:01.276Z,99862.00
2023-04-22T18:16:29.638Z,99856.94
2023-04-22T18:19:02.723Z,99866.84
2023-04-22T18:21:34.981Z,99871.53
2023-04-22T18:24:03.881Z,99857.19
2023-04-22T18:26:32.437Z,99869.66
2023-04-22T18:29:00.731Z,99868.31
2023-04-22T18:31:31.733Z,99864.50
2023-04-22T18:34:00.095Z,99858.50
2023-04-22T18:36:32.487Z,99858.97
2023-04-22T18:39:04.731Z,99860.84
2023-04-22T18:41:41.572Z,99851.84
2023-04-22T18:44:16.115Z,99855.56
2023-04-22T18:46:44.631Z,99864.97
2023-04-22T18:49:12.830Z,99851.91
2023-04-22T18:51:47.568Z,99863.19
2023-04-22T18:54:15.879Z,99860.41
2023-04-22T18:56:44.218Z,99857.59
2023-04-22T18:59:12.880Z,99861.75
2023-04-22T19:01:41.631Z,99860.47
2023-04-22T19:04:10.065Z,99853.06
2023-04-22T19:06:38.600Z,99862.69
2023-04-22T19:09:08.268Z,99861.94
2023-04-22T19:11:40.450Z,99860.53
2023-04-22T19:14:09.084Z,99861.47
2023-04-22T19:16:37.309Z,99865.50
2023-04-22T19:19:05.702Z,99860.56
2023-04-22T19:21:34.270Z,99865.31
2023-04-22T19:24:03.174Z,99865.75
2023-04-22T19:26:33.584Z,99856.97
2023-04-22T19:29:12.256Z,99865.81
2023-04-22T19:31:40.495Z,99855.97
2023-04-22T19:34:09.571Z,99871.47
2023-04-22T19:36:39.504Z,99863.00
2023-04-22T19:39:10.954Z,99848.53
2023-04-22T19:41:40.713Z,99853.78
2023-04-22T19:44:11.503Z,99851.00
2023-04-22T19:46:39.763Z,99856.00
2023-04-22T19:49:13.719Z,99856.41
2023-04-22T19:51:43.052Z,99864.91
2023-04-22T19:54:12.653Z,99850.59
2023-04-22T19:56:42.821Z,99854.28
2023-04-22T19:59:11.312Z,99849.28
2023-04-22T20:01:40.112Z,99848.28
2023-04-22T20:04:13.440Z,99850.34
2023-04-22T20:06:44.895Z,99839.34
2023-04-22T20:09:14.096Z,99842.09
2023-04-22T20:11:44.855Z,99843.06
2023-04-22T20:14:14.909Z,99835.34
2023-04-22T20:16:44.897Z,99831.41
2023-04-22T20:19:15.969Z,99835.03
2023-04-22T20:21:45.610Z,99823.84
2023-04-22T20:24:19.629Z,99834.72
2023-04-22T20:26:49.889Z,99840.13
2023-04-22T20:29:19.172Z,99843.59
2023-04-22T20:31:47.780Z,99838.69
2023-04-22T20:34:16.526Z,99840.06
2023-04-22T20:36:48.611Z,99838.44
2023-04-22T20:39:19.760Z,99843.13
2023-04-22T20:41:51.353Z,99844.53
2023-04-22T20:44:19.630Z,99846.31
2023-04-22T20:46:48.846Z,99846.91
2023-04-22T20:49:17.467Z,99849.56
2023-04-22T20:51:45.785Z,99840.06
2023-04-22T20:54:27.832Z,99844.50
2023-04-22T20:56:59.110Z,99852.41
2023-04-22T20:59:27.322Z,99852.75
2023-04-22T21:01:56.775Z,99851.78
2023-04-22T21:04:26.448Z,99853.06
2023-04-22T21:07:12.376Z,99850.16
2023-04-22T21:09:41.705Z,99856.47
2023-04-22T21:12:17.487Z,99845.03
2023-04-22T21:14:46.722Z,99855.94
2023-04-22T21:17:21.075Z,99855.09
2023-04-22T21:19:51.602Z,99850.94
2023-04-22T21:22:22.224Z,99846.59
2023-04-22T21:24:51.788Z,99845.06
2023-04-22T21:27:22.926Z,99844.84
2023-04-22T21:29:52.010Z,99848.13
2023-04-22T21:32:20.787Z,99848.94
2023-04-22T21:34:51.777Z,99845.22
2023-04-22T21:37:21.956Z,99840.66
2023-04-22T21:39:50.198Z,99833.22
2023-04-22T21:42:18.361Z,99828.66
2023-04-22T21:44:49.978Z,99834.63
2023-04-22T21:47:18.412Z,99833.59
2023-04-22T21:49:47.218Z,99834.41
2023-04-22T21:52:15.570Z,99820.97
2023-04-22T21:54:44.045Z,99828.53
2023-04-22T21:57:12.548Z,99832.63
2023-04-22T21:59:42.252Z,99837.78
2023-04-22T22:02:13.967Z,99840.25
2023-04-22T22:04:42.500Z,99829.28
2023-04-22T22:07:17.651Z,99832.56
2023-04-22T22:09:46.579Z,99831.72
2023-04-22T22:12:15.635Z,99830.31
2023-04-22T22:14:47.367Z,99839.66
2023-04-22T22:17:17.560Z,99833.69
2023-04-22T22:19:45.881Z,99830.31
2023-04-22T22:22:14.938Z,99836.13
2023-04-22T22:24:43.661Z,99840.91
2023-04-22T22:27:12.268Z,99846.13
2023-04-22T22:29:42.133Z,99849.88
2023-04-22T22:32:10.667Z,99841.47
2023-04-22T22:34:41.852Z,99842.50
2023-04-22T22:37:11.624Z,99846.47
2023-04-22T22:39:40.428Z,99838.41
2023-04-22T22:42:08.601Z,99837.13
2023-04-22T22:44:37.063Z,99835.94
2023-04-22T22:47:06.358Z,99845.34
2023-04-22T22:49:34.749Z,99843.81
2023-04-22T22:52:05.416Z,99837.63
2023-04-22T22:54:39.310Z,99838.66
2023-04-22T22:57:08.396Z,99842.75
2023-04-22T22:59:37.505Z,99847.53
2023-04-22T23:02:07.408Z,99838.78
2023-04-22T23:04:37.664Z,99842.50
2023-04-22T23:07:07.473Z,99841.91
2023-04-22T23:09:37.755Z,99845.28
2023-04-22T23:12:06.376Z,99851.69
2023-04-22T23:14:35.341Z,99840.00
2023-04-22T23:17:03.658Z,99848.66
2023-04-22T23:19:32.759Z,99841.88
2023-04-22T23:22:01.591Z,99836.06
2023-04-22T23:24:41.763Z,99845.75
2023-04-22T23:27:10.937Z,99835.84
2023-04-22T23:29:40.050Z,99834.41
2023-04-22T23:32:09.505Z,99836.06
2023-04-22T23:34:43.066Z,99834.41
2023-04-22T23:37:13.809Z,99840.47
2023-04-22T23:39:46.649Z,99839.88
2023-04-22T23:42:28.500Z,99828.78
2023-04-22T23:44:58.193Z,99828.78
2023-04-22T23:47:26.924Z,99829.25
2023-04-22T23:49:55.169Z,99821.78
2023-04-22T23:52:23.482Z,99817.00
2023-04-22T23:54:55.290Z,99816.75
2023-04-22T23:57:24.402Z,99810.94
2023-04-22T23:59:53.330Z,99805.59
